Jork Reliance — V2CL2 — position and weather

sailwx.info

Track history (hours):
 
Tides and Currents Weather Stations Pressure Air Temp Water Temp Dewpoint Dewpoint Depression Visibility Wind Speed Wind Dir Waves Ship Positions

Jork Reliance

Last reported at 2016-Feb-10 05:07 UTC. Time now 2016-Feb-11 10:46 UTC.
Position N 50°28' W 000°30'.

Length 141 m; draft 7.7 m.

Type: Ship (hazmat cat A). MMSI: 305033000.

Date/timePositionNaut miles runAvg speedWind from/ knotsBaromVisibWave heightAir tempDewpointWater temp
2016-Feb-10 05:07N 50°28' W 000°30'1314.6
2016-Feb-10 04:15N 50°30' W 000°10'1014.5
2016-Feb-10 03:33N 50°33' E 000°05'4213.7
2016-Feb-10 00:31N 50°52' E 001°04'1313.4
2016-Feb-09 23:34N 50°60' E 001°20'1414.3
2016-Feb-09 22:34N 51°09' E 001°37'1716.9
2016-Feb-09 21:33N 51°23' E 001°52'1817.6
2016-Feb-09 20:33N 51°36' E 002°11'2217.2
2016-Feb-09 19:18N 51°51' E 002°36'1316.4
2016-Feb-09 18:32N 52°00' E 002°51'1615.8
2016-Feb-09 17:33N 52°02' E 003°16'1515.7
2016-Feb-09 16:33N 52°03' E 003°41'1212.5
2016-Feb-09 15:34N 52°00' E 004°01'1212.0
2016-Feb-09 14:33N 51°54' E 004°18'4 4.2
2016-Feb-09 13:31N 51°53' E 004°25'0 0.0
2016-Feb-09 12:31N 51°53' E 004°25'0 0.0
2016-Feb-09 11:31N 51°53' E 004°25'0 0.0
2016-Feb-09 10:31N 51°53' E 004°25'0 0.0
2016-Feb-09 09:31N 51°53' E 004°25'0 0.0
2016-Feb-09 08:31N 51°53' E 004°25'0 0.0
2016-Feb-09 07:31N 51°53' E 004°25'0 0.0
2016-Feb-09 06:31N 51°53' E 004°25'0 0.0
2016-Feb-09 05:31N 51°53' E 004°25'0 0.0
2016-Feb-09 04:31N 51°53' E 004°25'0 0.0
2016-Feb-09 03:31N 51°53' E 004°25'0 0.0
2016-Feb-09 02:31N 51°53' E 004°25'0 0.0
2016-Feb-09 01:31N 51°53' E 004°25'0 0.0
2016-Feb-09 00:31N 51°53' E 004°25'0 0.0
2016-Feb-08 23:28N 51°53' E 004°25'1 0.5
2016-Feb-08 22:34N 51°53' E 004°24'8 8.1
2016-Feb-08 21:34N 51°56' E 004°12'1312.6
2016-Feb-08 20:34N 52°00' E 003°53'3014.9
2016-Feb-08 18:34N 51°43' E 003°14'1817.0
2016-Feb-08 17:32N 51°27' E 002°60'1212.1
2016-Feb-08 16:34N 51°25' E 003°18'1313.2
2016-Feb-08 15:33N 51°26' E 003°39'1211.6
2016-Feb-08 14:33N 51°23' E 003°57'9 9.2
2016-Feb-08 13:34N 51°24' E 004°12'5 4.8
2016-Feb-08 12:31N 51°20' E 004°17'0 0.0
2016-Feb-08 11:33N 51°20' E 004°17'0 0.0
2016-Feb-08 10:32N 51°20' E 004°17'0 0.0
2016-Feb-08 09:32N 51°20' E 004°17'0 0.0
2016-Feb-08 08:33N 51°20' E 004°17'0 0.0
2016-Feb-08 07:11N 51°20' E 004°17'0 0.0
2016-Feb-08 06:33N 51°20' E 004°17'0 0.0
2016-Feb-08 05:33N 51°20' E 004°17'0 0.0
2016-Feb-08 04:33N 51°20' E 004°17'0 0.0
2016-Feb-08 03:34N 51°20' E 004°17'0 0.0
2016-Feb-08 02:32N 51°20' E 004°17'0 0.0
2016-Feb-08 01:30N 51°20' E 004°17'0 0.0
2016-Feb-08 00:33N 51°20' E 004°17'0 0.0
2016-Feb-07 23:34N 51°20' E 004°17'0 0.0
2016-Feb-07 22:31N 51°20' E 004°17'0 0.0
2016-Feb-07 21:32N 51°20' E 004°17'0 0.0
2016-Feb-07 20:33N 51°20' E 004°17'0 0.0
2016-Feb-07 19:31N 51°20' E 004°17'0 0.0
2016-Feb-07 18:33N 51°20' E 004°17'0 0.0
2016-Feb-07 17:33N 51°20' E 004°17'0 0.0
2016-Feb-07 16:31N 51°20' E 004°17'0 0.0
2016-Feb-07 15:33N 51°20' E 004°17'0 0.0
2016-Feb-07 14:34N 51°20' E 004°17'0 0.0
2016-Feb-07 13:34N 51°20' E 004°17'0 0.0
2016-Feb-07 12:34N 51°20' E 004°17'0 0.0
2016-Feb-07 11:32N 51°20' E 004°17'0 0.0
2016-Feb-07 10:29N 51°20' E 004°17'0 0.0
2016-Feb-07 09:34N 51°20' E 004°17'2 1.6
2016-Feb-07 08:33N 51°21' E 004°15'1111.0
2016-Feb-07 07:33N 51°26' E 003°59'1010.3
2016-Feb-07 06:33N 51°25' E 003°42'1312.5
2016-Feb-07 05:33N 51°24' E 003°22'1514.7
2016-Feb-07 04:33N 51°23' E 002°59'1814.1
2016-Feb-07 03:19N 51°22' E 002°31'1013.2
2016-Feb-07 02:33N 51°18' E 002°16'1717.1
2016-Feb-07 01:34N 51°09' E 001°53'2019.8
2016-Feb-07 00:34N 50°55' E 001°31'  
2016-Feb-02 21:33N 50°27' W 000°44'2116.0
2016-Feb-02 20:15N 50°31' W 000°12'1115.4
2016-Feb-02 19:31N 50°34' E 000°05'1814.8
2016-Feb-02 18:18N 50°38' E 000°33'1114.8
2016-Feb-02 17:34N 50°44' E 000°47'1514.7
2016-Feb-02 16:33N 50°53' E 001°06'1515.3
2016-Feb-02 15:34N 51°03' E 001°24'1616.4
2016-Feb-02 14:34N 51°13' E 001°44'1716.9
2016-Feb-02 13:34N 51°28' E 001°57'1716.2
2016-Feb-02 12:30N 51°40' E 002°16'5413.6
2016-Feb-02 08:32N 52°03' E 003°36'1010.3
2016-Feb-02 07:33N 52°02' E 003°52'1010.3
2016-Feb-02 06:33N 51°58' E 004°08'1110.6
2016-Feb-02 05:34N 51°54' E 004°24'1 1.1
2016-Feb-02 04:32N 51°53' E 004°25'0 0.0
2016-Feb-02 03:26N 51°53' E 004°25'0 0.0
2016-Feb-02 02:32N 51°53' E 004°25'0 0.0
2016-Feb-02 01:32N 51°53' E 004°25'0 0.0
2016-Feb-02 00:29N 51°53' E 004°25'0 0.0
2016-Feb-01 23:32N 51°53' E 004°25'0 0.0
2016-Feb-01 22:32N 51°53' E 004°25'1 1.4
2016-Feb-01 21:33N 51°54' E 004°23'1211.6
2016-Feb-01 20:33N 51°59' E 004°06'1514.5
2016-Feb-01 19:33N 51°58' E 003°42'1717.0
2016-Feb-01 18:33N 51°50' E 003°19'1111.0
2016-Feb-01 17:33N 51°39' E 003°21'1414.7
2016-Feb-01 16:33N 51°27' E 003°33'1010.2
2016-Feb-01 15:33N 51°21' E 003°47'10 9.6
2016-Feb-01 14:33N 51°23' E 004°02'9 9.3
2016-Feb-01 13:33N 51°20' E 004°17'0 0.0
2016-Feb-01 12:30N 51°20' E 004°17'0 0.0
2016-Feb-01 11:31N 51°20' E 004°17'0 0.0
2016-Feb-01 10:34N 51°20' E 004°17'0 0.0
2016-Feb-01 09:33N 51°20' E 004°17'0 0.0
2016-Feb-01 08:32N 51°20' E 004°17'0 0.0
2016-Feb-01 07:34N 51°20' E 004°17'0 0.0
2016-Feb-01 06:29N 51°20' E 004°17'0 0.0
2016-Feb-01 05:32N 51°20' E 004°17'0 0.0
2016-Feb-01 04:33N 51°20' E 004°17'0 0.0
2016-Feb-01 03:32N 51°20' E 004°17'0 0.0
2016-Feb-01 02:26N 51°20' E 004°17'0 0.0
2016-Feb-01 01:32N 51°20' E 004°17'0 0.0
2016-Feb-01 00:31N 51°20' E 004°17'0 0.0
2016-Jan-31 23:32N 51°20' E 004°17'0 0.0
2016-Jan-31 22:34N 51°20' E 004°17'0 0.0
2016-Jan-31 21:32N 51°20' E 004°17'0 0.0
2016-Jan-31 20:31N 51°20' E 004°17'0 0.0
2016-Jan-31 19:31N 51°20' E 004°17'0 0.0
2016-Jan-31 18:34N 51°20' E 004°17'4 4.0
2016-Jan-31 17:33N 51°23' E 004°13'1212.5
2016-Jan-31 16:34N 51°21' E 003°53'1414.4
2016-Jan-31 15:34N 51°25' E 003°31'1817.7
2016-Jan-31 14:34N 51°24' E 003°02'1514.7
2016-Jan-31 13:32N 51°22' E 002°39'1514.9
2016-Jan-31 12:33N 51°17' E 002°16'1615.9
2016-Jan-31 11:33N 51°09' E 001°55'1515.3
2016-Jan-31 10:34N 50°59' E 001°37'1615.4
2016-Jan-31 09:31N 50°45' E 001°25'  
Track history (hours):
 
Tides and Currents Weather Stations Pressure Air Temp Water Temp Dewpoint Dewpoint Depression Visibility Wind Speed Wind Dir Waves Ship Positions

Jork Reliance

Last reported at 2016-Feb-10 05:07 UTC. Time now 2016-Feb-11 10:46 UTC.
Position N 50°28' W 000°30'.

Length 141 m; draft 7.7 m.

Type: Ship (hazmat cat A). MMSI: 305033000.

Date/timePositionNaut miles runAvg speedWind from/ knotsBaromVisibWave heightAir tempDewpointWater temp
2016-Feb-10 05:07N 50°28' W 000°30'1314.6
2016-Feb-10 04:15N 50°30' W 000°10'1014.5
2016-Feb-10 03:33N 50°33' E 000°05'4213.7
2016-Feb-10 00:31N 50°52' E 001°04'1313.4
2016-Feb-09 23:34N 50°60' E 001°20'1414.3
2016-Feb-09 22:34N 51°09' E 001°37'1716.9
2016-Feb-09 21:33N 51°23' E 001°52'1817.6
2016-Feb-09 20:33N 51°36' E 002°11'2217.2
2016-Feb-09 19:18N 51°51' E 002°36'1316.4
2016-Feb-09 18:32N 52°00' E 002°51'1615.8
2016-Feb-09 17:33N 52°02' E 003°16'1515.7
2016-Feb-09 16:33N 52°03' E 003°41'1212.5
2016-Feb-09 15:34N 52°00' E 004°01'1212.0
2016-Feb-09 14:33N 51°54' E 004°18'4 4.2
2016-Feb-09 13:31N 51°53' E 004°25'0 0.0
2016-Feb-09 12:31N 51°53' E 004°25'0 0.0
2016-Feb-09 11:31N 51°53' E 004°25'0 0.0
2016-Feb-09 10:31N 51°53' E 004°25'0 0.0
2016-Feb-09 09:31N 51°53' E 004°25'0 0.0
2016-Feb-09 08:31N 51°53' E 004°25'0 0.0
2016-Feb-09 07:31N 51°53' E 004°25'0 0.0
2016-Feb-09 06:31N 51°53' E 004°25'0 0.0
2016-Feb-09 05:31N 51°53' E 004°25'0 0.0
2016-Feb-09 04:31N 51°53' E 004°25'0 0.0
2016-Feb-09 03:31N 51°53' E 004°25'0 0.0
2016-Feb-09 02:31N 51°53' E 004°25'0 0.0
2016-Feb-09 01:31N 51°53' E 004°25'0 0.0
2016-Feb-09 00:31N 51°53' E 004°25'0 0.0
2016-Feb-08 23:28N 51°53' E 004°25'1 0.5
2016-Feb-08 22:34N 51°53' E 004°24'8 8.1
2016-Feb-08 21:34N 51°56' E 004°12'1312.6
2016-Feb-08 20:34N 52°00' E 003°53'3014.9
2016-Feb-08 18:34N 51°43' E 003°14'1817.0
2016-Feb-08 17:32N 51°27' E 002°60'1212.1
2016-Feb-08 16:34N 51°25' E 003°18'1313.2
2016-Feb-08 15:33N 51°26' E 003°39'1211.6
2016-Feb-08 14:33N 51°23' E 003°57'9 9.2
2016-Feb-08 13:34N 51°24' E 004°12'5 4.8
2016-Feb-08 12:31N 51°20' E 004°17'0 0.0
2016-Feb-08 11:33N 51°20' E 004°17'0 0.0
2016-Feb-08 10:32N 51°20' E 004°17'0 0.0
2016-Feb-08 09:32N 51°20' E 004°17'0 0.0
2016-Feb-08 08:33N 51°20' E 004°17'0 0.0
2016-Feb-08 07:11N 51°20' E 004°17'0 0.0
2016-Feb-08 06:33N 51°20' E 004°17'0 0.0
2016-Feb-08 05:33N 51°20' E 004°17'0 0.0
2016-Feb-08 04:33N 51°20' E 004°17'0 0.0
2016-Feb-08 03:34N 51°20' E 004°17'0 0.0
2016-Feb-08 02:32N 51°20' E 004°17'0 0.0
2016-Feb-08 01:30N 51°20' E 004°17'0 0.0
2016-Feb-08 00:33N 51°20' E 004°17'0 0.0
2016-Feb-07 23:34N 51°20' E 004°17'0 0.0
2016-Feb-07 22:31N 51°20' E 004°17'0 0.0
2016-Feb-07 21:32N 51°20' E 004°17'0 0.0
2016-Feb-07 20:33N 51°20' E 004°17'0 0.0
2016-Feb-07 19:31N 51°20' E 004°17'0 0.0
2016-Feb-07 18:33N 51°20' E 004°17'0 0.0
2016-Feb-07 17:33N 51°20' E 004°17'0 0.0
2016-Feb-07 16:31N 51°20' E 004°17'0 0.0
2016-Feb-07 15:33N 51°20' E 004°17'0 0.0
2016-Feb-07 14:34N 51°20' E 004°17'0 0.0
2016-Feb-07 13:34N 51°20' E 004°17'0 0.0
2016-Feb-07 12:34N 51°20' E 004°17'0 0.0
2016-Feb-07 11:32N 51°20' E 004°17'0 0.0
2016-Feb-07 10:29N 51°20' E 004°17'0 0.0
2016-Feb-07 09:34N 51°20' E 004°17'2 1.6
2016-Feb-07 08:33N 51°21' E 004°15'1111.0
2016-Feb-07 07:33N 51°26' E 003°59'1010.3
2016-Feb-07 06:33N 51°25' E 003°42'1312.5
2016-Feb-07 05:33N 51°24' E 003°22'1514.7
2016-Feb-07 04:33N 51°23' E 002°59'1814.1
2016-Feb-07 03:19N 51°22' E 002°31'1013.2
2016-Feb-07 02:33N 51°18' E 002°16'1717.1
2016-Feb-07 01:34N 51°09' E 001°53'2019.8
2016-Feb-07 00:34N 50°55' E 001°31'  
2016-Feb-02 21:33N 50°27' W 000°44'2116.0
2016-Feb-02 20:15N 50°31' W 000°12'1115.4
2016-Feb-02 19:31N 50°34' E 000°05'1814.8
2016-Feb-02 18:18N 50°38' E 000°33'1114.8
2016-Feb-02 17:34N 50°44' E 000°47'1514.7
2016-Feb-02 16:33N 50°53' E 001°06'1515.3
2016-Feb-02 15:34N 51°03' E 001°24'1616.4
2016-Feb-02 14:34N 51°13' E 001°44'1716.9
2016-Feb-02 13:34N 51°28' E 001°57'1716.2
2016-Feb-02 12:30N 51°40' E 002°16'5413.6
2016-Feb-02 08:32N 52°03' E 003°36'1010.3
2016-Feb-02 07:33N 52°02' E 003°52'1010.3
2016-Feb-02 06:33N 51°58' E 004°08'1110.6
2016-Feb-02 05:34N 51°54' E 004°24'1 1.1
2016-Feb-02 04:32N 51°53' E 004°25'0 0.0
2016-Feb-02 03:26N 51°53' E 004°25'0 0.0
2016-Feb-02 02:32N 51°53' E 004°25'0 0.0
2016-Feb-02 01:32N 51°53' E 004°25'0 0.0
2016-Feb-02 00:29N 51°53' E 004°25'0 0.0
2016-Feb-01 23:32N 51°53' E 004°25'0 0.0
2016-Feb-01 22:32N 51°53' E 004°25'1 1.4
2016-Feb-01 21:33N 51°54' E 004°23'1211.6
2016-Feb-01 20:33N 51°59' E 004°06'1514.5
2016-Feb-01 19:33N 51°58' E 003°42'1717.0
2016-Feb-01 18:33N 51°50' E 003°19'1111.0
2016-Feb-01 17:33N 51°39' E 003°21'1414.7
2016-Feb-01 16:33N 51°27' E 003°33'1010.2
2016-Feb-01 15:33N 51°21' E 003°47'10 9.6
2016-Feb-01 14:33N 51°23' E 004°02'9 9.3
2016-Feb-01 13:33N 51°20' E 004°17'0 0.0
2016-Feb-01 12:30N 51°20' E 004°17'0 0.0
2016-Feb-01 11:31N 51°20' E 004°17'0 0.0
2016-Feb-01 10:34N 51°20' E 004°17'0 0.0
2016-Feb-01 09:33N 51°20' E 004°17'0 0.0
2016-Feb-01 08:32N 51°20' E 004°17'0 0.0
2016-Feb-01 07:34N 51°20' E 004°17'0 0.0
2016-Feb-01 06:29N 51°20' E 004°17'0 0.0
2016-Feb-01 05:32N 51°20' E 004°17'0 0.0
2016-Feb-01 04:33N 51°20' E 004°17'0 0.0
2016-Feb-01 03:32N 51°20' E 004°17'0 0.0
2016-Feb-01 02:26N 51°20' E 004°17'0 0.0
2016-Feb-01 01:32N 51°20' E 004°17'0 0.0
2016-Feb-01 00:31N 51°20' E 004°17'0 0.0
2016-Jan-31 23:32N 51°20' E 004°17'0 0.0
2016-Jan-31 22:34N 51°20' E 004°17'0 0.0
2016-Jan-31 21:32N 51°20' E 004°17'0 0.0
2016-Jan-31 20:31N 51°20' E 004°17'0 0.0
2016-Jan-31 19:31N 51°20' E 004°17'0 0.0
2016-Jan-31 18:34N 51°20' E 004°17'4 4.0
2016-Jan-31 17:33N 51°23' E 004°13'1212.5
2016-Jan-31 16:34N 51°21' E 003°53'1414.4
2016-Jan-31 15:34N 51°25' E 003°31'1817.7
2016-Jan-31 14:34N 51°24' E 003°02'1514.7
2016-Jan-31 13:32N 51°22' E 002°39'1514.9
2016-Jan-31 12:33N 51°17' E 002°16'1615.9
2016-Jan-31 11:33N 51°09' E 001°55'1515.3
2016-Jan-31 10:34N 50°59' E 001°37'1615.4
2016-Jan-31 09:31N 50°45' E 001°25'  

Dump ship's entire track history